Time;durP1;ratioP1;P1;durP2;ratioP2;P2;SDS_P1;SDS_P2;PMS_P1;PMS_P2;Temp;Humidity;BMP_temperature;BMP_pressure;BME280_temperature;BME280_humidity;BME280_pressure;Samples;Min_cycle;Max_cycle;Signal;HPM_P1;HPM_P2
2023/03/04 00:01:39;;;;;;;50.33;27.73;;;0.90;99.90;;;;;;5011541;28;20556;-36
2023/03/04 00:04:05;;;;;;;44.33;25.73;;;0.80;99.90;;;;;;5011340;28;20221;-38
2023/03/04 00:06:31;;;;;;;47.53;24.77;;;0.80;99.90;;;;;;5014906;28;20211;-35
2023/03/04 00:08:57;;;;;;;44.17;25.40;;;0.80;99.90;;;;;;5015508;28;20182;-38
2023/03/04 00:11:23;;;;;;;50.20;26.00;;;0.70;99.90;;;;;;5014898;28;20169;-36
2023/03/04 00:13:49;;;;;;;49.23;26.07;;;0.70;99.90;;;;;;5014458;28;20685;-39
2023/03/04 00:16:15;;;;;;;46.60;24.93;;;0.80;99.90;;;;;;5031107;28;20192;-35
2023/03/04 00:18:40;;;;;;;44.23;25.17;;;0.70;99.90;;;;;;5032755;28;20184;-37
2023/03/04 00:21:06;;;;;;;47.70;25.33;;;0.70;99.90;;;;;;4998055;28;20195;-36
2023/03/04 00:23:32;;;;;;;49.17;25.87;;;0.80;99.90;;;;;;5014711;28;20244;-36
2023/03/04 00:25:58;;;;;;;48.83;25.83;;;0.70;99.90;;;;;;5014522;28;20271;-38
2023/03/04 00:28:24;;;;;;;43.73;25.53;;;0.60;99.90;;;;;;5014836;28;20187;-36
2023/03/04 00:30:50;;;;;;;45.03;25.87;;;0.50;99.90;;;;;;5004811;28;20177;-37
2023/03/04 00:33:16;;;;;;;47.73;26.23;;;0.40;99.90;;;;;;4995338;28;20283;-37
2023/03/04 00:35:42;;;;;;;50.77;25.77;;;0.30;99.90;;;;;;5013991;28;20188;-37
2023/03/04 00:38:08;;;;;;;45.30;24.83;;;0.30;99.90;;;;;;4998093;28;20187;-35
2023/03/04 00:40:34;;;;;;;50.07;26.40;;;0.20;99.90;;;;;;5008123;28;20223;-34
2023/03/04 00:43:01;;;;;;;45.23;25.40;;;0.20;99.90;;;;;;5011258;28;20258;-36
2023/03/04 00:45:26;;;;;;;49.57;26.33;;;0.20;99.90;;;;;;4999528;28;20663;-35
2023/03/04 00:47:52;;;;;;;48.47;26.50;;;0.10;99.90;;;;;;5014635;28;20190;-39
2023/03/04 00:50:18;;;;;;;44.00;25.30;;;0.00;99.90;;;;;;5013659;28;20223;-37
2023/03/04 00:52:44;;;;;;;50.77;26.53;;;-0.10;99.90;;;;;;5031821;28;20215;-39
2023/03/04 00:55:10;;;;;;;57.03;29.57;;;-0.10;99.90;;;;;;4997215;28;20278;-36
2023/03/04 00:57:35;;;;;;;60.53;30.87;;;-0.10;99.90;;;;;;4998150;28;20410;-36
2023/03/04 01:00:01;;;;;;;62.20;31.57;;;-0.10;99.90;;;;;;5013901;28;20213;-40
2023/03/04 01:02:27;;;;;;;61.77;32.60;;;-0.10;99.90;;;;;;4994866;28;20255;-35
2023/03/04 01:04:53;;;;;;;59.57;31.63;;;-0.10;99.90;;;;;;4994696;28;20675;-35
2023/03/04 01:07:19;;;;;;;60.63;30.03;;;0.00;99.90;;;;;;4994547;28;20184;-38
2023/03/04 01:09:44;;;;;;;55.53;29.93;;;0.00;99.90;;;;;;4994800;28;20311;-40
2023/03/04 01:12:11;;;;;;;54.27;29.07;;;0.00;99.90;;;;;;4978182;28;20191;-40
2023/03/04 01:14:37;;;;;;;49.67;27.03;;;0.10;99.90;;;;;;4977986;28;20204;-35
2023/03/04 01:17:02;;;;;;;50.63;27.53;;;0.20;99.90;;;;;;5030625;28;20179;-39
2023/03/04 01:19:28;;;;;;;53.23;28.37;;;0.20;99.90;;;;;;5013847;28;20194;-41
2023/03/04 01:21:54;;;;;;;46.00;26.53;;;0.20;99.90;;;;;;5010464;28;20262;-41
2023/03/04 01:24:21;;;;;;;48.33;26.87;;;0.20;99.90;;;;;;5009322;28;20235;-41
2023/03/04 01:26:47;;;;;;;47.87;26.63;;;0.10;99.90;;;;;;5013860;28;20179;-34
2023/03/04 01:29:13;;;;;;;46.70;25.97;;;0.10;99.90;;;;;;5031527;28;20178;-37
2023/03/04 01:31:39;;;;;;;46.03;25.40;;;0.10;99.90;;;;;;5001477;28;20182;-36
2023/03/04 01:34:05;;;;;;;50.60;27.37;;;0.00;99.90;;;;;;5013732;28;20237;-36
2023/03/04 01:36:30;;;;;;;50.47;27.03;;;-0.10;99.90;;;;;;4996636;28;20183;-39
2023/03/04 01:38:56;;;;;;;49.03;26.60;;;-0.10;99.90;;;;;;5013659;28;20229;-36
2023/03/04 01:41:25;;;;;;;43.80;24.67;;;0.00;99.90;;;;;;4985187;28;20266;-37
2023/03/04 01:43:53;;;;;;;52.17;26.47;;;0.00;99.90;;;;;;4977470;28;20346;-36
2023/03/04 01:46:20;;;;;;;46.07;26.13;;;0.00;99.90;;;;;;4988531;28;20225;-35
2023/03/04 01:48:46;;;;;;;46.87;25.00;;;-0.10;99.90;;;;;;5013399;28;20189;-37
2023/03/04 01:51:18;;;;;;;43.97;24.93;;;-0.30;99.90;;;;;;5013604;28;20170;-34
2023/03/04 01:53:46;;;;;;;50.20;26.57;;;-0.30;99.90;;;;;;5012979;28;20257;-35
2023/03/04 01:56:15;;;;;;;51.33;25.90;;;-0.30;99.90;;;;;;5013087;28;20325;-37
2023/03/04 01:58:41;;;;;;;49.13;26.10;;;-0.40;99.90;;;;;;4996914;28;20186;-35
2023/03/04 02:01:10;;;;;;;50.03;27.87;;;-0.40;99.90;;;;;;4999574;28;20187;-34
2023/03/04 02:03:37;;;;;;;54.80;28.80;;;-0.40;99.90;;;;;;4993652;28;20261;-34
2023/03/04 02:06:03;;;;;;;49.67;28.20;;;-0.40;99.90;;;;;;4994052;28;20245;-35
2023/03/04 02:08:29;;;;;;;52.73;30.07;;;-0.40;99.90;;;;;;5010035;28;20187;-34
2023/03/04 02:10:56;;;;;;;53.53;28.03;;;-0.40;99.90;;;;;;5013339;28;20209;-35
2023/03/04 02:13:22;;;;;;;53.73;28.60;;;-0.40;99.90;;;;;;5013304;28;20194;-35
2023/03/04 02:15:48;;;;;;;53.53;26.97;;;-0.40;99.90;;;;;;5011322;28;20674;-38
2023/03/04 02:18:22;;;;;;;49.00;26.23;;;-0.30;99.90;;;;;;5029618;28;20171;-38
2023/03/04 02:20:56;;;;;;;49.67;27.10;;;-0.30;99.90;;;;;;5012564;28;20186;-34
2023/03/04 02:23:37;;;;;;;51.87;27.13;;;-0.30;99.90;;;;;;5012992;28;20214;-35
2023/03/04 02:26:16;;;;;;;51.87;28.50;;;-0.30;99.90;;;;;;5013182;28;20202;-35
2023/03/04 02:28:43;;;;;;;50.70;26.27;;;-0.30;99.90;;;;;;5013295;28;20179;-37
2023/03/04 02:31:31;;;;;;;48.07;26.37;;;-0.30;99.90;;;;;;5002545;28;20180;-37
2023/03/04 02:33:59;;;;;;;49.83;26.23;;;-0.30;99.90;;;;;;4976710;28;20253;-33
2023/03/04 02:36:27;;;;;;;45.60;26.13;;;-0.40;99.90;;;;;;4995538;28;20184;-33
2023/03/04 02:38:53;;;;;;;46.70;26.10;;;-0.40;99.90;;;;;;5013424;28;20238;-35
2023/03/04 02:41:24;;;;;;;48.97;26.53;;;-0.40;99.90;;;;;;5016820;28;20174;-35
2023/03/04 02:43:53;;;;;;;52.50;26.37;;;-0.40;99.90;;;;;;5016616;28;20199;-36
2023/03/04 02:46:19;;;;;;;50.53;27.07;;;-0.40;99.90;;;;;;5015783;28;20303;-39
2023/03/04 02:48:46;;;;;;;48.07;26.47;;;-0.50;99.90;;;;;;5016559;28;20185;-35
2023/03/04 02:51:12;;;;;;;45.13;24.90;;;-0.50;99.90;;;;;;5015708;28;20179;-34
2023/03/04 02:53:37;;;;;;;53.90;27.33;;;-0.50;99.90;;;;;;4999449;28;20285;-35
2023/03/04 02:56:04;;;;;;;48.73;24.53;;;-0.60;99.90;;;;;;5016345;28;20183;-34
2023/03/04 02:58:34;;;;;;;45.43;24.93;;;-0.60;99.90;;;;;;5000515;28;20180;-39
2023/03/04 03:01:00;;;;;;;43.67;23.00;;;-0.60;99.90;;;;;;4996982;28;20210;-34
2023/03/04 03:03:27;;;;;;;44.20;23.37;;;-0.70;99.90;;;;;;5011036;28;20207;-36
2023/03/04 03:05:53;;;;;;;42.87;24.57;;;-0.70;99.90;;;;;;5016316;28;20266;-35
2023/03/04 03:08:19;;;;;;;42.17;22.50;;;-0.70;99.90;;;;;;5016280;28;20197;-38
2023/03/04 03:10:45;;;;;;;44.27;24.20;;;-0.70;99.90;;;;;;5016212;28;20180;-33
2023/03/04 03:13:11;;;;;;;46.13;25.80;;;-0.80;99.90;;;;;;5004961;28;20571;-34
2023/03/04 03:15:41;;;;;;;47.60;26.97;;;-0.80;99.90;;;;;;5012745;28;20190;-32
2023/03/04 03:18:11;;;;;;;44.53;24.93;;;-0.80;99.90;;;;;;5014558;28;20191;-35
2023/03/04 03:20:37;;;;;;;50.73;25.03;;;-0.80;99.90;;;;;;5013354;28;20202;-36
2023/03/04 03:23:03;;;;;;;50.10;27.23;;;-0.80;99.90;;;;;;5025268;28;20207;-35
2023/03/04 03:25:29;;;;;;;44.50;23.83;;;-0.80;99.90;;;;;;4996457;28;20758;-35
2023/03/04 03:27:55;;;;;;;46.83;25.07;;;-0.80;99.90;;;;;;4987697;28;20229;-36
2023/03/04 03:30:21;;;;;;;46.57;24.67;;;-0.90;99.90;;;;;;4999877;28;20200;-37
2023/03/04 03:32:47;;;;;;;45.30;24.93;;;-0.90;99.90;;;;;;5015573;28;20203;-37
2023/03/04 03:35:13;;;;;;;50.00;25.47;;;-1.00;99.90;;;;;;5015706;28;20179;-35
2023/03/04 03:37:40;;;;;;;50.30;25.40;;;-1.00;99.90;;;;;;4995156;28;20258;-34
2023/03/04 03:40:06;;;;;;;48.47;24.07;;;-1.00;99.90;;;;;;4996454;28;20331;-35
2023/03/04 03:42:32;;;;;;;41.80;23.33;;;-1.00;99.90;;;;;;4998251;28;20214;-35
2023/03/04 03:44:58;;;;;;;42.87;23.50;;;-1.00;99.90;;;;;;4999245;28;20206;-38
2023/03/04 03:47:23;;;;;;;40.20;23.17;;;-1.00;99.90;;;;;;5032264;28;20249;-39
2023/03/04 03:49:49;;;;;;;42.03;22.93;;;-1.10;99.90;;;;;;5015750;28;20179;-34
2023/03/04 03:52:15;;;;;;;42.97;23.47;;;-1.10;99.90;;;;;;4999115;28;20579;-34
2023/03/04 03:54:42;;;;;;;44.83;25.30;;;-1.10;99.90;;;;;;5014550;28;20202;-38
2023/03/04 03:57:07;;;;;;;43.93;25.20;;;-1.20;99.90;;;;;;5015594;28;20240;-32
2023/03/04 03:59:33;;;;;;;39.43;22.90;;;-1.20;99.90;;;;;;4997957;28;20176;-36
2023/03/04 04:01:59;;;;;;;45.53;24.50;;;-1.20;99.90;;;;;;4995772;28;20206;-38
2023/03/04 04:04:25;;;;;;;48.63;26.20;;;-1.20;99.90;;;;;;5013750;28;20203;-35
2023/03/04 04:06:51;;;;;;;45.40;24.53;;;-1.20;99.90;;;;;;4995755;28;20603;-36
2023/03/04 04:09:16;;;;;;;43.47;23.97;;;-1.30;99.90;;;;;;4993649;28;20191;-34
2023/03/04 04:11:42;;;;;;;45.10;23.70;;;-1.40;99.90;;;;;;5031771;28;20175;-37
2023/03/04 04:14:11;;;;;;;49.43;23.60;;;-1.40;99.90;;;;;;5019111;28;20200;-33
2023/03/04 04:16:37;;;;;;;45.30;23.97;;;-1.50;99.90;;;;;;4995521;28;20183;-37
2023/03/04 04:19:03;;;;;;;44.53;24.80;;;-1.50;99.90;;;;;;4999621;28;20198;-35
2023/03/04 04:21:29;;;;;;;45.57;24.30;;;-1.50;99.90;;;;;;5014986;28;20186;-34
2023/03/04 04:23:54;;;;;;;46.37;24.77;;;-1.60;99.90;;;;;;5031811;28;20257;-35
2023/03/04 04:26:20;;;;;;;46.10;24.00;;;-1.60;99.90;;;;;;4998707;28;20203;-35
2023/03/04 04:28:46;;;;;;;49.40;25.83;;;-1.60;99.90;;;;;;5018902;28;20179;-33
2023/03/04 04:31:12;;;;;;;51.23;25.90;;;-1.60;99.90;;;;;;4995151;28;20234;-36
2023/03/04 04:33:38;;;;;;;49.50;24.10;;;-1.60;99.90;;;;;;5005273;28;20206;-38
2023/03/04 04:36:04;;;;;;;49.87;23.77;;;-1.70;99.90;;;;;;5013933;28;20193;-35
2023/03/04 04:38:30;;;;;;;47.07;24.83;;;-1.70;99.90;;;;;;4998293;28;20182;-36
2023/03/04 04:40:57;;;;;;;47.93;24.33;;;-1.60;99.90;;;;;;5010938;28;20191;-33
2023/03/04 04:43:24;;;;;;;43.83;23.93;;;-1.70;99.90;;;;;;5012714;28;20199;-34
2023/03/04 04:45:50;;;;;;;45.40;23.10;;;-1.70;99.90;;;;;;5013822;28;20195;-36
2023/03/04 04:48:16;;;;;;;43.50;23.73;;;-1.70;99.90;;;;;;4994550;28;20195;-37
2023/03/04 04:50:42;;;;;;;48.27;24.93;;;-1.70;99.90;;;;;;5029251;28;20296;-35
2023/03/04 04:53:11;;;;;;;47.57;25.67;;;-1.70;99.90;;;;;;5014556;28;20199;-34
2023/03/04 04:55:36;;;;;;;45.67;25.17;;;-1.60;99.90;;;;;;4994447;28;20412;-36
2023/03/04 04:58:06;;;;;;;48.67;25.43;;;-1.70;99.90;;;;;;4978747;28;20201;-35
2023/03/04 05:00:31;;;;;;;49.57;25.07;;;-1.70;99.90;;;;;;5001715;28;20248;-37
2023/03/04 05:02:57;;;;;;;48.43;24.83;;;-1.70;99.90;;;;;;5031713;28;20241;-34
2023/03/04 05:05:23;;;;;;;45.73;25.37;;;-1.70;99.90;;;;;;5012363;28;20210;-38
2023/03/04 05:07:49;;;;;;;48.77;23.63;;;-1.70;99.90;;;;;;5012186;28;20213;-35
2023/03/04 05:10:14;;;;;;;44.90;24.67;;;-1.80;99.90;;;;;;5013876;28;20179;-34
2023/03/04 05:12:42;;;;;;;50.03;23.90;;;-1.80;99.90;;;;;;5008557;28;20253;-33
2023/03/04 05:15:08;;;;;;;48.67;23.47;;;-1.90;99.90;;;;;;5010510;28;20183;-38
2023/03/04 05:17:34;;;;;;;47.87;25.20;;;-1.90;99.90;;;;;;5012582;28;20289;-35
2023/03/04 05:20:00;;;;;;;45.70;24.33;;;-2.00;99.90;;;;;;4988043;28;20250;-35
2023/03/04 05:22:25;;;;;;;49.30;24.63;;;-2.00;99.90;;;;;;5026660;28;20181;-33
2023/03/04 05:24:51;;;;;;;47.70;25.33;;;-2.00;99.90;;;;;;5022173;28;20201;-38
2023/03/04 05:27:17;;;;;;;49.63;25.67;;;-2.00;99.90;;;;;;5048710;28;20186;-35
2023/03/04 05:29:45;;;;;;;51.17;25.93;;;-2.00;99.90;;;;;;5013879;28;20205;-33
2023/03/04 05:32:11;;;;;;;54.47;26.60;;;-2.00;99.90;;;;;;5030588;28;20179;-32
2023/03/04 05:34:37;;;;;;;52.73;27.73;;;-2.00;99.90;;;;;;5011763;28;20202;-34
2023/03/04 05:37:02;;;;;;;46.23;25.03;;;-2.00;99.90;;;;;;5056849;23;20222;-32
2023/03/04 05:39:28;;;;;;;51.70;25.80;;;-2.00;99.90;;;;;;4994574;28;20175;-32
2023/03/04 05:41:54;;;;;;;51.13;25.93;;;-2.00;99.90;;;;;;5012137;28;20263;-33
2023/03/04 05:44:19;;;;;;;50.77;23.73;;;-2.00;99.90;;;;;;4994181;28;20274;-32
2023/03/04 05:46:45;;;;;;;43.53;24.00;;;-1.90;99.90;;;;;;5012046;28;20239;-32
2023/03/04 05:49:11;;;;;;;48.93;23.77;;;-1.80;99.90;;;;;;4977587;28;20171;-32
2023/03/04 05:51:37;;;;;;;48.40;25.53;;;-1.90;99.90;;;;;;5011922;28;20183;-33
2023/03/04 05:54:02;;;;;;;43.53;24.57;;;-1.90;99.90;;;;;;5011936;28;20175;-32
2023/03/04 05:56:29;;;;;;;46.83;25.60;;;-2.00;99.90;;;;;;4990789;28;20204;-32
2023/03/04 05:58:58;;;;;;;46.33;25.13;;;-2.10;99.90;;;;;;4990912;28;20186;-32
2023/03/04 06:01:25;;;;;;;46.97;24.50;;;-2.20;99.90;;;;;;5010006;28;20183;-32
2023/03/04 06:03:50;;;;;;;45.70;23.97;;;-2.30;99.90;;;;;;4993920;28;20203;-33
2023/03/04 06:06:17;;;;;;;49.70;24.73;;;-2.30;99.90;;;;;;5011760;28;20246;-33
2023/03/04 06:08:42;;;;;;;52.20;25.23;;;-2.40;99.90;;;;;;5011935;28;20175;-32
2023/03/04 06:11:08;;;;;;;52.33;26.17;;;-2.30;99.90;;;;;;4997349;28;20218;-32
2023/03/04 06:13:34;;;;;;;50.40;24.47;;;-2.30;99.90;;;;;;5018248;28;20209;-33
2023/03/04 06:16:00;;;;;;;55.23;25.93;;;-2.30;99.90;;;;;;4999795;28;20238;-32
2023/03/04 06:18:27;;;;;;;51.53;26.13;;;-2.20;99.90;;;;;;5000642;28;20185;-32
2023/03/04 06:21:02;;;;;;;51.30;25.47;;;-2.20;99.90;;;;;;4999948;28;20183;-33
2023/03/04 06:23:28;;;;;;;45.73;24.10;;;-2.20;99.90;;;;;;5000572;28;20270;-33
2023/03/04 06:25:56;;;;;;;46.27;24.40;;;-2.20;99.90;;;;;;5000017;28;20207;-33
2023/03/04 06:28:23;;;;;;;51.03;25.40;;;-2.30;99.90;;;;;;5017888;28;20172;-32
2023/03/04 06:30:51;;;;;;;44.77;24.30;;;-2.20;99.90;;;;;;5016513;28;20179;-33
2023/03/04 06:33:18;;;;;;;45.17;22.70;;;-2.20;99.90;;;;;;5000239;28;20234;-32
2023/03/04 06:35:44;;;;;;;49.10;23.93;;;-2.10;99.90;;;;;;5017016;28;20202;-32
2023/03/04 06:38:09;;;;;;;48.90;23.93;;;-2.00;99.90;;;;;;5000737;28;20528;-32
2023/03/04 06:40:35;;;;;;;49.20;23.93;;;-2.00;99.90;;;;;;4999123;28;20183;-32
2023/03/04 06:43:01;;;;;;;45.47;24.03;;;-2.00;99.90;;;;;;4996871;28;20262;-32
2023/03/04 06:45:27;;;;;;;45.93;24.37;;;-2.00;99.90;;;;;;5023599;28;20209;-33
2023/03/04 06:47:53;;;;;;;48.87;25.57;;;-2.00;99.90;;;;;;4985200;28;20266;-32
2023/03/04 06:50:18;;;;;;;50.77;26.30;;;-2.00;99.90;;;;;;4992554;28;20175;-33
2023/03/04 06:52:44;;;;;;;48.43;24.47;;;-1.90;99.90;;;;;;5017668;28;20233;-32
2023/03/04 06:55:11;;;;;;;44.67;24.40;;;-1.90;99.90;;;;;;5008463;28;20179;-33
2023/03/04 06:57:38;;;;;;;45.20;24.33;;;-1.90;99.90;;;;;;5000678;28;20203;-33
2023/03/04 07:00:04;;;;;;;48.43;24.17;;;-1.90;99.90;;;;;;5017659;28;20201;-32
2023/03/04 07:02:30;;;;;;;47.23;24.47;;;-1.80;99.90;;;;;;5017571;28;20206;-33
2023/03/04 07:04:56;;;;;;;45.33;24.90;;;-1.80;99.90;;;;;;4999602;28;20210;-32
2023/03/04 07:07:22;;;;;;;46.77;24.50;;;-1.70;99.90;;;;;;4983351;28;20199;-33
2023/03/04 07:09:48;;;;;;;47.93;26.63;;;-1.60;99.90;;;;;;5017407;28;20179;-33
2023/03/04 07:12:14;;;;;;;49.67;26.60;;;-1.50;99.90;;;;;;5016514;28;20190;-33
2023/03/04 07:14:39;;;;;;;52.00;27.90;;;-1.30;99.90;;;;;;4999023;28;20180;-32
2023/03/04 07:17:05;;;;;;;55.90;27.97;;;-1.20;99.90;;;;;;4999898;28;20205;-33
2023/03/04 07:19:31;;;;;;;51.57;27.17;;;-1.10;99.90;;;;;;4999653;28;20238;-33
2023/03/04 07:21:57;;;;;;;50.10;26.37;;;-1.00;99.90;;;;;;5015605;28;20168;-32
2023/03/04 07:24:23;;;;;;;50.03;26.60;;;-0.90;99.90;;;;;;4996379;28;20183;-33
2023/03/04 07:26:48;;;;;;;47.67;25.97;;;-0.80;99.90;;;;;;4996263;28;20733;-34
2023/03/04 07:29:14;;;;;;;51.67;27.20;;;-0.70;99.90;;;;;;5014558;28;20543;-32
2023/03/04 07:31:40;;;;;;;46.17;25.77;;;-0.70;99.90;;;;;;4998411;28;20171;-33
2023/03/04 07:34:09;;;;;;;49.77;27.60;;;-0.60;99.90;;;;;;5016022;28;20171;-33
2023/03/04 07:36:37;;;;;;;48.43;28.10;;;-0.60;99.90;;;;;;4997367;28;20691;-33
2023/03/04 07:39:04;;;;;;;49.23;27.33;;;-0.50;99.90;;;;;;4994419;28;20176;-33
2023/03/04 07:41:29;;;;;;;47.57;26.70;;;-0.40;99.90;;;;;;5010795;28;20193;-33
2023/03/04 07:43:57;;;;;;;47.57;25.47;;;-0.40;99.90;;;;;;5011654;28;20187;-34
2023/03/04 07:46:23;;;;;;;49.57;27.20;;;-0.40;99.90;;;;;;5011812;28;20211;-33
2023/03/04 07:48:55;;;;;;;57.93;29.73;;;-0.20;99.90;;;;;;4995714;28;20192;-33
2023/03/04 07:51:24;;;;;;;54.17;29.13;;;-0.10;99.90;;;;;;4992066;28;20183;-34
2023/03/04 07:53:52;;;;;;;52.67;27.80;;;-0.10;99.90;;;;;;5013370;28;20173;-33
2023/03/04 07:56:20;;;;;;;54.80;30.10;;;0.00;99.90;;;;;;5013243;28;20195;-33
2023/03/04 07:58:46;;;;;;;57.63;29.43;;;0.10;99.90;;;;;;4980377;28;20218;-33
2023/03/04 08:01:15;;;;;;;56.57;29.10;;;0.20;99.90;;;;;;4996037;28;20200;-33
2023/03/04 08:03:42;;;;;;;53.10;28.83;;;0.40;99.90;;;;;;5013631;28;20282;-34
2023/03/04 08:06:12;;;;;;;50.90;28.67;;;0.40;99.90;;;;;;5002836;28;20215;-33
2023/03/04 08:08:38;;;;;;;50.70;28.47;;;0.50;99.90;;;;;;4988606;28;20178;-34
2023/03/04 08:11:17;;;;;;;49.47;27.47;;;0.60;99.90;;;;;;5026069;28;20216;-33
2023/03/04 08:13:43;;;;;;;50.43;28.30;;;0.80;99.90;;;;;;4991295;28;20201;-34
2023/03/04 08:16:14;;;;;;;57.30;28.70;;;0.90;99.90;;;;;;5007830;28;20197;-33
2023/03/04 08:18:46;;;;;;;48.03;27.03;;;1.10;99.90;;;;;;5001696;28;20200;-33
2023/03/04 08:21:14;;;;;;;53.77;29.03;;;1.20;99.90;;;;;;5016124;28;20181;-33
2023/03/04 08:23:43;;;;;;;50.60;27.70;;;1.30;99.90;;;;;;5000550;28;20184;-34
2023/03/04 08:26:12;;;;;;;50.23;27.77;;;1.30;99.90;;;;;;5016919;28;20208;-33
2023/03/04 08:28:39;;;;;;;52.73;29.27;;;1.40;99.90;;;;;;5015261;28;20177;-33
2023/03/04 08:31:05;;;;;;;50.00;28.23;;;1.40;99.90;;;;;;4995342;28;20199;-34
2023/03/04 08:33:32;;;;;;;52.13;28.13;;;1.50;99.90;;;;;;4995197;28;20217;-34
2023/03/04 08:35:58;;;;;;;47.53;27.93;;;1.60;99.90;;;;;;4973994;28;20235;-33
2023/03/04 08:38:24;;;;;;;58.93;30.83;;;1.60;99.90;;;;;;4992151;28;20216;-33
2023/03/04 08:40:54;;;;;;;50.90;28.97;;;1.70;99.90;;;;;;4985781;28;20252;-33
2023/03/04 08:43:21;;;;;;;47.70;27.97;;;1.60;99.90;;;;;;4995248;28;20209;-33
2023/03/04 08:45:47;;;;;;;46.43;25.13;;;1.70;99.90;;;;;;4994761;28;20642;-33
2023/03/04 08:48:13;;;;;;;38.90;22.63;;;1.70;99.90;;;;;;5013125;28;20226;-34
2023/03/04 08:50:39;;;;;;;41.63;24.40;;;1.80;99.90;;;;;;5012297;28;20250;-33
2023/03/04 08:53:05;;;;;;;40.93;23.00;;;1.80;99.90;;;;;;4995215;28;20191;-33
2023/03/04 08:55:31;;;;;;;39.77;22.27;;;1.90;99.90;;;;;;5011192;28;20273;-33
2023/03/04 08:57:56;;;;;;;44.83;22.87;;;2.10;99.90;;;;;;4994933;28;20185;-33
2023/03/04 09:00:22;;;;;;;37.57;21.53;;;2.20;99.90;;;;;;4994293;28;20214;-33
2023/03/04 09:02:49;;;;;;;39.07;22.20;;;2.30;99.90;;;;;;5012601;28;20650;-33
2023/03/04 09:05:14;;;;;;;32.73;17.93;;;2.40;99.90;;;;;;4994345;28;20304;-33
2023/03/04 09:07:40;;;;;;;29.30;17.83;;;2.10;99.90;;;;;;4994773;28;20288;-32
2023/03/04 09:10:07;;;;;;;31.73;18.23;;;2.00;99.90;;;;;;5010763;28;20187;-33
2023/03/04 09:12:33;;;;;;;35.57;18.47;;;1.60;99.90;;;;;;4994700;28;20186;-33
2023/03/04 09:14:58;;;;;;;34.77;19.13;;;1.40;99.90;;;;;;5012008;28;20185;-33
2023/03/04 09:17:24;;;;;;;30.40;16.70;;;1.40;99.90;;;;;;4994622;28;20209;-33
2023/03/04 09:19:50;;;;;;;35.23;16.73;;;1.30;99.90;;;;;;5012272;28;20186;-33
2023/03/04 09:22:16;;;;;;;35.47;17.60;;;1.20;99.90;;;;;;5008578;28;20549;-32
2023/03/04 09:24:41;;;;;;;43.85;22.65;;;1.00;99.90;;;;;;5009654;28;20300;-33
2023/03/04 09:27:08;;;;;;;37.50;18.40;;;1.00;99.90;;;;;;5011989;28;20198;-33
2023/03/04 09:29:34;;;;;;;36.37;18.83;;;1.00;99.90;;;;;;4995742;28;20188;-34
2023/03/04 09:31:59;;;;;;;35.80;18.77;;;0.90;99.90;;;;;;5012331;28;20172;-34
2023/03/04 09:34:26;;;;;;;38.67;18.60;;;1.00;99.90;;;;;;5012538;28;20189;-34
2023/03/04 09:36:53;;;;;;;35.10;16.57;;;1.00;99.90;;;;;;4997850;28;20216;-37
2023/03/04 09:39:20;;;;;;;35.17;17.40;;;0.90;99.90;;;;;;4995614;28;20180;-32
2023/03/04 09:41:56;;;;;;;28.83;16.03;;;0.90;99.90;;;;;;5010956;28;20250;-32
2023/03/04 09:44:21;;;;;;;36.17;16.53;;;0.80;99.90;;;;;;4993014;28;20183;-33
2023/03/04 09:46:51;;;;;;;35.23;16.83;;;0.90;99.90;;;;;;4993864;28;20214;-34
2023/03/04 09:49:19;;;;;;;34.60;17.37;;;1.00;99.90;;;;;;4995004;28;20187;-33
2023/03/04 09:51:51;;;;;;;31.00;16.57;;;1.00;99.90;;;;;;4977627;28;20211;-32
2023/03/04 09:54:45;;;;;;;31.57;16.20;;;1.00;99.90;;;;;;4993913;28;20215;-33
2023/03/04 09:57:23;;;;;;;29.43;15.63;;;1.00;99.90;;;;;;4985868;28;20220;-31
2023/03/04 10:00:05;;;;;;;29.17;15.77;;;0.90;99.90;;;;;;5011730;28;20266;-33
2023/03/04 10:03:03;;;;;;;31.90;15.67;;;1.10;99.90;;;;;;5011497;28;20243;-32
2023/03/04 10:05:31;;;;;;;33.67;17.57;;;1.30;99.90;;;;;;5011161;28;20212;-31
2023/03/04 10:08:09;;;;;;;30.60;17.00;;;1.30;99.90;;;;;;4993668;28;20199;-35
2023/03/04 10:10:38;;;;;;;32.87;17.33;;;1.30;99.90;;;;;;4978880;28;20184;-38
2023/03/04 10:13:09;;;;;;;32.07;16.90;;;1.30;99.90;;;;;;4981349;28;20224;-37
2023/03/04 10:15:45;;;;;;;33.50;17.83;;;1.50;99.90;;;;;;4996537;28;20197;-36
2023/03/04 10:18:22;;;;;;;33.67;17.20;;;1.60;99.90;;;;;;4995450;28;20200;-37
2023/03/04 10:21:03;;;;;;;35.20;18.13;;;1.70;99.90;;;;;;4997277;28;20214;-36
2023/03/04 10:23:31;;;;;;;35.03;18.33;;;1.80;99.90;;;;;;4983553;28;20178;-35
2023/03/04 10:26:00;;;;;;;28.07;16.17;;;1.80;99.90;;;;;;4996457;28;20213;-35
2023/03/04 10:28:29;;;;;;;26.77;15.83;;;1.90;99.90;;;;;;4997464;28;20179;-35
2023/03/04 10:31:07;;;;;;;32.83;16.90;;;2.00;99.90;;;;;;4995244;28;20206;-35
2023/03/04 10:33:35;;;;;;;33.13;16.53;;;2.10;99.90;;;;;;4979954;28;20182;-35
2023/03/04 10:36:11;;;;;;;28.23;15.40;;;2.10;99.90;;;;;;4997265;28;20237;-35
2023/03/04 10:38:40;;;;;;;31.63;16.87;;;2.10;99.90;;;;;;4996035;28;20196;-37
2023/03/04 10:41:15;;;;;;;31.43;15.90;;;2.10;99.90;;;;;;5013685;28;20221;-35
2023/03/04 10:43:44;;;;;;;30.77;16.53;;;2.20;99.90;;;;;;5032873;28;20277;-36
2023/03/04 10:46:11;;;;;;;32.00;16.43;;;2.00;99.90;;;;;;5005075;28;20212;-38
2023/03/04 10:48:43;;;;;;;33.23;16.93;;;2.00;99.90;;;;;;4977232;28;20175;-37
2023/03/04 10:51:18;;;;;;;29.10;16.17;;;1.90;99.90;;;;;;5013681;28;20179;-35
2023/03/04 10:53:45;;;;;;;33.40;17.33;;;1.80;99.90;;;;;;4996639;28;20186;-35
2023/03/04 10:56:41;;;;;;;29.17;16.40;;;1.90;99.90;;;;;;4995416;28;20205;-37
2023/03/04 10:59:34;;;;;;;31.33;17.07;;;1.90;99.90;;;;;;5008780;28;20229;-35
2023/03/04 11:02:09;;;;;;;28.13;16.00;;;1.90;99.90;;;;;;4999393;28;20182;-36
2023/03/04 11:04:37;;;;;;;29.10;16.07;;;2.00;99.90;;;;;;4998261;28;20239;-37
2023/03/04 11:07:10;;;;;;;27.17;15.73;;;2.20;99.90;;;;;;4982750;28;20269;-39
2023/03/04 11:09:38;;;;;;;26.93;15.17;;;2.40;99.90;;;;;;5000642;28;20190;-37
2023/03/04 11:12:11;;;;;;;27.40;15.17;;;2.50;99.90;;;;;;4999103;28;20242;-36
2023/03/04 11:14:51;;;;;;;27.13;15.60;;;2.60;99.90;;;;;;4984831;28;20202;-34
2023/03/04 11:17:21;;;;;;;26.03;15.60;;;2.80;99.90;;;;;;5006508;28;20245;-36
2023/03/04 11:20:11;;;;;;;22.63;14.27;;;3.00;99.90;;;;;;5018030;28;20217;-36
2023/03/04 11:22:43;;;;;;;27.47;15.53;;;3.20;99.90;;;;;;5009555;28;20183;-37
2023/03/04 11:25:39;;;;;;;28.27;16.60;;;3.30;99.90;;;;;;5004291;28;20203;-36
2023/03/04 11:28:38;;;;;;;24.50;14.90;;;3.40;99.90;;;;;;5009909;28;20639;-35
2023/03/04 11:31:19;;;;;;;26.33;15.23;;;3.50;99.90;;;;;;5023781;28;20182;-34
2023/03/04 11:33:55;;;;;;;30.87;16.57;;;3.60;99.90;;;;;;5027441;28;20179;-36
2023/03/04 11:36:39;;;;;;;27.77;15.70;;;3.60;99.90;;;;;;5026137;23;20290;-31
2023/03/04 11:39:20;;;;;;;26.27;14.97;;;3.60;99.90;;;;;;5003622;28;20594;-30
2023/03/04 11:42:06;;;;;;;25.17;15.47;;;3.70;99.90;;;;;;4978413;28;20160;-31
2023/03/04 11:44:32;;;;;;;25.57;14.97;;;3.80;99.90;;;;;;4971801;28;20235;-29
2023/03/04 11:47:17;;;;;;;26.33;15.40;;;3.80;99.90;;;;;;4961888;28;20226;-30
2023/03/04 11:50:07;;;;;;;25.67;15.23;;;3.90;99.90;;;;;;4995233;28;20176;-31
2023/03/04 11:52:48;;;;;;;27.63;15.83;;;3.80;99.90;;;;;;4958863;28;20180;-31
2023/03/04 11:55:28;;;;;;;28.17;17.03;;;3.80;99.90;;;;;;4958298;28;20176;-31
2023/03/04 11:58:31;;;;;;;27.80;15.83;;;3.80;99.90;;;;;;4970081;28;20207;-31
2023/03/04 12:01:36;;;;;;;27.40;16.40;;;3.90;99.90;;;;;;4997480;28;20190;-30
2023/03/04 12:04:16;;;;;;;31.10;17.47;;;4.00;99.90;;;;;;4962353;28;20267;-31
2023/03/04 12:06:53;;;;;;;31.27;17.03;;;4.10;99.90;;;;;;4970299;28;20243;-30
2023/03/04 12:09:43;;;;;;;30.67;17.37;;;4.10;99.90;;;;;;4995666;28;20168;-30
2023/03/04 12:12:29;;;;;;;29.77;17.73;;;4.10;99.90;;;;;;4993974;28;20266;-30
2023/03/04 12:15:41;;;;;;;31.77;18.43;;;3.70;99.90;;;;;;4988160;28;20671;-30
2023/03/04 12:18:33;;;;;;;31.17;17.33;;;3.80;99.90;;;;;;4988321;28;20192;-31
2023/03/04 12:21:24;;;;;;;32.27;18.40;;;3.70;99.90;;;;;;4980379;28;20192;-30
2023/03/04 12:24:08;;;;;;;29.87;18.00;;;3.70;99.90;;;;;;4977697;28;20174;-31
2023/03/04 12:26:49;;;;;;;28.20;17.17;;;3.90;99.90;;;;;;4996480;28;20215;-30
2023/03/04 12:29:39;;;;;;;32.03;19.73;;;4.00;99.90;;;;;;4970549;28;20262;-31
2023/03/04 12:32:14;;;;;;;29.90;19.03;;;4.20;99.90;;;;;;5013643;28;20202;-31
2023/03/04 12:34:54;;;;;;;32.20;18.57;;;4.40;99.90;;;;;;4985603;28;20179;-31
2023/03/04 12:37:45;;;;;;;33.80;19.57;;;4.50;99.90;;;;;;4994535;28;20203;-31
2023/03/04 12:40:32;;;;;;;30.47;18.00;;;4.70;99.90;;;;;;4981516;28;20249;-31
2023/03/04 12:43:47;;;;;;;30.10;18.27;;;4.70;99.90;;;;;;4997876;28;20183;-30